Devauden, United Kingdom
Current Conditions -  °F | °C
As of 8:50 AM on Wednesday 26 Nov 2014 (Local Time) from EGGD Reporting Station
Moderate Fog Moderate Fog  
Wind Chill: 39°   Ceiling: Unl
Heat Index: 43°   Visibility: 0.03mi
Dew Point: 43°   Wind: 6mph
Humidity: 100%   Direction: 360°N
Pressure: 29.88"   Gusts: NA
Location:  51.69°N, 2.75°W
Report Text: EGGD 260850Z 36005KT 0050 R27/0250 FG OVC000 06/06 Q1012
Loading
Personal Weather Stations






























Interactive Weather Map New forecast layout! Learn more

10-Day Weather Forecast

Advertisements
Track Severe Weather on mobile